DJE weather

Djerba Zarzis International Airport
Djerba, Medenine Governorate, Tunisia

Public forecast

Using degrees Celsius for public forecast. Weather courtesy of forecast.io.

METAR (pilot weather report)

Retrieved 2019/04/19 23:30 UTC (47 minutes ago):

DTTJ 192330Z 08022G33KT 8000 NSC 17/12 Q1017 NOSIG

TAF (pilot weather forecast)

Forecast is more than 12 hours old.

Retrieved 2019/04/19 00:39 UTC (24 hours ago):

TAF DTTJ 192300Z 2000/2024 09021G35KT 8000 NSC PROB40 TEMPO 2006/2018 09030G40KT 1200 SA BECMG 2020/2022 12015G25KT